Portada
METAR-TAF:

METAR-TAF

Aeroports :

Fond du Lac, Wisconsin, Estats Units d'Amèrica

Fond Du Lac County Airport

latitud: 43-46-12N, longitud: 088-29-11W, altitud: 246 m

Observació

L'informe es va fer fa 21 minuts, a les 01:53 UTC
Vent 15 kt del Sud
Temperatura 1°C
Humitat 69%
Pressió 1011 hPa
Visibilitat: 16.1 km
Cel cobert a una alçada de 9000 ft

METAR: KFLD 190153Z AUTO 19015KT 10SM OVC090 01/M04 A2985 RMK AO2 PK WND 17032/0117 SLP118 T00111039 TSNO

Hora: 20:14 (02:14 UTC)


TAF: manca

Observacions i pronòstics meteorològics de més de 4000 aeroports (METAR i TAF).

Les estacions disponibles són els punts grocs i vermells al mapa.

Posi el ratolí al punt desitjat per veure el nom de l'estació.

Feu clic per veure les observacions i els pronòstics meteorològics.

Per canviar el mapa: feu clic els botons verds amb una creu de color negre per apropar; al botó verd amb un guió per allunyar la imatge; o en les fletxes verdes per a mapes adjacents.


METAR-TAF: